sensor_id;sensor_type;location;lat;lon;timestamp;P1;durP1;ratioP1;P2;durP2;ratioP2
42200;SDS011;27869;51.442;7.540;2023-07-31T00:01:25;6.03;;;1.27;;
42200;SDS011;27869;51.442;7.540;2023-07-31T00:03:52;8.25;;;1.50;;
42200;SDS011;27869;51.442;7.540;2023-07-31T00:06:19;8.57;;;2.13;;
42200;SDS011;27869;51.442;7.540;2023-07-31T00:08:46;8.45;;;1.90;;
42200;SDS011;27869;51.442;7.540;2023-07-31T00:11:12;6.50;;;1.67;;
42200;SDS011;27869;51.442;7.540;2023-07-31T00:13:39;7.10;;;1.60;;
42200;SDS011;27869;51.442;7.540;2023-07-31T00:16:07;8.18;;;1.80;;
42200;SDS011;27869;51.442;7.540;2023-07-31T00:18:34;8.07;;;1.73;;
42200;SDS011;27869;51.442;7.540;2023-07-31T00:21:01;6.85;;;1.65;;
42200;SDS011;27869;51.442;7.540;2023-07-31T00:23:28;9.70;;;1.85;;
42200;SDS011;27869;51.442;7.540;2023-07-31T00:25:55;6.72;;;1.60;;
42200;SDS011;27869;51.442;7.540;2023-07-31T00:28:22;6.30;;;1.70;;
42200;SDS011;27869;51.442;7.540;2023-07-31T00:30:49;9.52;;;1.85;;
42200;SDS011;27869;51.442;7.540;2023-07-31T00:33:17;8.90;;;1.88;;
42200;SDS011;27869;51.442;7.540;2023-07-31T00:35:43;7.18;;;1.55;;
42200;SDS011;27869;51.442;7.540;2023-07-31T00:38:12;7.53;;;1.77;;
42200;SDS011;27869;51.442;7.540;2023-07-31T00:40:39;8.55;;;1.90;;
42200;SDS011;27869;51.442;7.540;2023-07-31T00:43:06;7.60;;;1.55;;
42200;SDS011;27869;51.442;7.540;2023-07-31T00:45:40;8.35;;;1.88;;
42200;SDS011;27869;51.442;7.540;2023-07-31T00:48:07;8.10;;;1.95;;
42200;SDS011;27869;51.442;7.540;2023-07-31T00:50:35;7.72;;;1.60;;
42200;SDS011;27869;51.442;7.540;2023-07-31T00:53:02;8.52;;;1.65;;
42200;SDS011;27869;51.442;7.540;2023-07-31T00:55:29;5.45;;;1.45;;
42200;SDS011;27869;51.442;7.540;2023-07-31T00:57:56;8.13;;;1.90;;
42200;SDS011;27869;51.442;7.540;2023-07-31T01:00:23;11.15;;;2.00;;
42200;SDS011;27869;51.442;7.540;2023-07-31T01:02:50;7.70;;;1.77;;
42200;SDS011;27869;51.442;7.540;2023-07-31T01:05:18;8.18;;;1.70;;
42200;SDS011;27869;51.442;7.540;2023-07-31T01:07:52;9.10;;;2.05;;
42200;SDS011;27869;51.442;7.540;2023-07-31T01:10:28;12.18;;;2.30;;
42200;SDS011;27869;51.442;7.540;2023-07-31T01:13:01;7.57;;;1.85;;
42200;SDS011;27869;51.442;7.540;2023-07-31T01:15:29;7.60;;;1.90;;
42200;SDS011;27869;51.442;7.540;2023-07-31T01:17:56;9.05;;;1.90;;
42200;SDS011;27869;51.442;7.540;2023-07-31T01:20:23;11.75;;;2.20;;
42200;SDS011;27869;51.442;7.540;2023-07-31T01:26:02;12.23;;;2.15;;
42200;SDS011;27869;51.442;7.540;2023-07-31T01:28:33;10.00;;;1.90;;
42200;SDS011;27869;51.442;7.540;2023-07-31T01:31:07;10.18;;;2.25;;
42200;SDS011;27869;51.442;7.540;2023-07-31T01:33:36;11.05;;;2.15;;
42200;SDS011;27869;51.442;7.540;2023-07-31T01:36:04;9.63;;;2.13;;
42200;SDS011;27869;51.442;7.540;2023-07-31T01:38:31;11.32;;;2.20;;
42200;SDS011;27869;51.442;7.540;2023-07-31T01:40:58;13.10;;;4.18;;
42200;SDS011;27869;51.442;7.540;2023-07-31T01:43:26;9.98;;;2.30;;
42200;SDS011;27869;51.442;7.540;2023-07-31T01:45:53;10.23;;;2.13;;
42200;SDS011;27869;51.442;7.540;2023-07-31T01:48:20;10.50;;;2.00;;
42200;SDS011;27869;51.442;7.540;2023-07-31T01:50:47;9.40;;;2.17;;
42200;SDS011;27869;51.442;7.540;2023-07-31T01:53:14;11.52;;;2.25;;
42200;SDS011;27869;51.442;7.540;2023-07-31T01:55:43;10.25;;;2.08;;
42200;SDS011;27869;51.442;7.540;2023-07-31T01:58:10;10.25;;;2.13;;
42200;SDS011;27869;51.442;7.540;2023-07-31T02:00:38;10.65;;;2.10;;
42200;SDS011;27869;51.442;7.540;2023-07-31T02:03:05;8.45;;;1.75;;
42200;SDS011;27869;51.442;7.540;2023-07-31T02:05:38;10.23;;;2.13;;
42200;SDS011;27869;51.442;7.540;2023-07-31T02:08:10;10.73;;;2.15;;
42200;SDS011;27869;51.442;7.540;2023-07-31T02:10:37;10.80;;;2.38;;
42200;SDS011;27869;51.442;7.540;2023-07-31T02:13:04;8.40;;;1.80;;
42200;SDS011;27869;51.442;7.540;2023-07-31T02:15:31;9.38;;;1.70;;
42200;SDS011;27869;51.442;7.540;2023-07-31T02:17:59;9.90;;;2.03;;
42200;SDS011;27869;51.442;7.540;2023-07-31T02:20:26;8.38;;;1.90;;
42200;SDS011;27869;51.442;7.540;2023-07-31T02:22:53;10.32;;;1.80;;
42200;SDS011;27869;51.442;7.540;2023-07-31T02:25:19;7.78;;;1.90;;
42200;SDS011;27869;51.442;7.540;2023-07-31T02:27:46;13.02;;;2.63;;
42200;SDS011;27869;51.442;7.540;2023-07-31T02:30:13;9.52;;;2.03;;
42200;SDS011;27869;51.442;7.540;2023-07-31T02:32:40;10.45;;;2.08;;
42200;SDS011;27869;51.442;7.540;2023-07-31T02:35:08;13.32;;;2.50;;
42200;SDS011;27869;51.442;7.540;2023-07-31T02:37:36;7.75;;;1.80;;
42200;SDS011;27869;51.442;7.540;2023-07-31T02:40:04;9.48;;;1.90;;
42200;SDS011;27869;51.442;7.540;2023-07-31T02:42:31;8.15;;;1.77;;
42200;SDS011;27869;51.442;7.540;2023-07-31T02:44:58;8.25;;;2.03;;
42200;SDS011;27869;51.442;7.540;2023-07-31T02:47:25;11.93;;;2.25;;
42200;SDS011;27869;51.442;7.540;2023-07-31T02:49:52;10.38;;;2.35;;
42200;SDS011;27869;51.442;7.540;2023-07-31T02:52:20;10.73;;;2.20;;
42200;SDS011;27869;51.442;7.540;2023-07-31T02:54:47;10.23;;;1.95;;
42200;SDS011;27869;51.442;7.540;2023-07-31T02:57:13;8.25;;;1.90;;
42200;SDS011;27869;51.442;7.540;2023-07-31T02:59:41;11.95;;;2.40;;
42200;SDS011;27869;51.442;7.540;2023-07-31T03:02:08;13.80;;;2.10;;
42200;SDS011;27869;51.442;7.540;2023-07-31T03:04:34;12.05;;;2.40;;
42200;SDS011;27869;51.442;7.540;2023-07-31T03:07:01;10.73;;;2.10;;
42200;SDS011;27869;51.442;7.540;2023-07-31T03:09:30;8.48;;;2.05;;
42200;SDS011;27869;51.442;7.540;2023-07-31T03:11:56;10.82;;;2.30;;
42200;SDS011;27869;51.442;7.540;2023-07-31T03:14:23;10.10;;;2.22;;
42200;SDS011;27869;51.442;7.540;2023-07-31T03:16:51;14.52;;;2.50;;
42200;SDS011;27869;51.442;7.540;2023-07-31T03:19:18;9.02;;;1.90;;
42200;SDS011;27869;51.442;7.540;2023-07-31T03:21:45;10.55;;;2.25;;
42200;SDS011;27869;51.442;7.540;2023-07-31T03:24:12;15.23;;;2.30;;
42200;SDS011;27869;51.442;7.540;2023-07-31T03:26:40;11.30;;;2.28;;
42200;SDS011;27869;51.442;7.540;2023-07-31T03:29:07;13.15;;;2.85;;
42200;SDS011;27869;51.442;7.540;2023-07-31T03:31:34;12.75;;;2.67;;
42200;SDS011;27869;51.442;7.540;2023-07-31T03:34:01;10.55;;;2.22;;
42200;SDS011;27869;51.442;7.540;2023-07-31T03:36:27;9.45;;;2.20;;
42200;SDS011;27869;51.442;7.540;2023-07-31T03:38:54;12.75;;;2.08;;
42200;SDS011;27869;51.442;7.540;2023-07-31T03:41:21;12.25;;;2.38;;
42200;SDS011;27869;51.442;7.540;2023-07-31T03:43:50;13.70;;;2.35;;
42200;SDS011;27869;51.442;7.540;2023-07-31T03:46:17;10.85;;;2.05;;
42200;SDS011;27869;51.442;7.540;2023-07-31T03:48:44;9.60;;;2.28;;
42200;SDS011;27869;51.442;7.540;2023-07-31T03:51:11;11.02;;;2.10;;
42200;SDS011;27869;51.442;7.540;2023-07-31T03:53:38;10.88;;;2.50;;
42200;SDS011;27869;51.442;7.540;2023-07-31T03:56:05;9.60;;;2.15;;
42200;SDS011;27869;51.442;7.540;2023-07-31T03:58:32;10.30;;;2.35;;
42200;SDS011;27869;51.442;7.540;2023-07-31T04:01:01;12.68;;;2.65;;
42200;SDS011;27869;51.442;7.540;2023-07-31T04:03:28;10.13;;;2.22;;
42200;SDS011;27869;51.442;7.540;2023-07-31T04:05:55;9.65;;;1.98;;
42200;SDS011;27869;51.442;7.540;2023-07-31T04:08:22;12.00;;;2.13;;
42200;SDS011;27869;51.442;7.540;2023-07-31T04:10:49;11.80;;;2.03;;
42200;SDS011;27869;51.442;7.540;2023-07-31T04:13:16;12.23;;;2.33;;
42200;SDS011;27869;51.442;7.540;2023-07-31T04:15:43;10.35;;;2.15;;
42200;SDS011;27869;51.442;7.540;2023-07-31T04:18:16;13.18;;;2.15;;
42200;SDS011;27869;51.442;7.540;2023-07-31T04:20:43;14.52;;;2.45;;
42200;SDS011;27869;51.442;7.540;2023-07-31T04:23:10;10.57;;;2.00;;
42200;SDS011;27869;51.442;7.540;2023-07-31T04:25:37;12.02;;;2.28;;
42200;SDS011;27869;51.442;7.540;2023-07-31T04:28:04;9.55;;;2.28;;
42200;SDS011;27869;51.442;7.540;2023-07-31T04:32:59;9.05;;;1.90;;
42200;SDS011;27869;51.442;7.540;2023-07-31T04:35:28;12.50;;;2.45;;
42200;SDS011;27869;51.442;7.540;2023-07-31T04:37:55;10.27;;;2.08;;
42200;SDS011;27869;51.442;7.540;2023-07-31T04:40:22;12.93;;;2.15;;
42200;SDS011;27869;51.442;7.540;2023-07-31T04:42:48;11.68;;;2.10;;
42200;SDS011;27869;51.442;7.540;2023-07-31T04:45:15;10.48;;;2.35;;
42200;SDS011;27869;51.442;7.540;2023-07-31T04:47:42;11.20;;;2.33;;
42200;SDS011;27869;51.442;7.540;2023-07-31T04:50:09;11.70;;;2.15;;
42200;SDS011;27869;51.442;7.540;2023-07-31T04:52:38;13.25;;;2.35;;
42200;SDS011;27869;51.442;7.540;2023-07-31T04:55:04;12.15;;;2.35;;
42200;SDS011;27869;51.442;7.540;2023-07-31T04:57:31;8.00;;;1.88;;
42200;SDS011;27869;51.442;7.540;2023-07-31T04:59:58;11.65;;;2.20;;
42200;SDS011;27869;51.442;7.540;2023-07-31T05:02:25;11.13;;;2.03;;
42200;SDS011;27869;51.442;7.540;2023-07-31T05:04:52;8.55;;;1.92;;
42200;SDS011;27869;51.442;7.540;2023-07-31T05:07:19;9.93;;;2.38;;
42200;SDS011;27869;51.442;7.540;2023-07-31T05:09:47;13.32;;;2.33;;
42200;SDS011;27869;51.442;7.540;2023-07-31T05:12:14;10.70;;;2.00;;
42200;SDS011;27869;51.442;7.540;2023-07-31T05:14:40;10.13;;;2.28;;
42200;SDS011;27869;51.442;7.540;2023-07-31T05:17:07;11.35;;;2.35;;
42200;SDS011;27869;51.442;7.540;2023-07-31T05:19:34;10.30;;;2.45;;
42200;SDS011;27869;51.442;7.540;2023-07-31T05:22:01;9.15;;;2.20;;
42200;SDS011;27869;51.442;7.540;2023-07-31T05:24:28;9.40;;;2.15;;
42200;SDS011;27869;51.442;7.540;2023-07-31T05:26:56;11.10;;;2.40;;
42200;SDS011;27869;51.442;7.540;2023-07-31T05:29:23;8.25;;;2.10;;
42200;SDS011;27869;51.442;7.540;2023-07-31T05:31:50;11.27;;;2.33;;
42200;SDS011;27869;51.442;7.540;2023-07-31T05:34:17;10.45;;;2.08;;
42200;SDS011;27869;51.442;7.540;2023-07-31T05:36:43;10.07;;;1.90;;
42200;SDS011;27869;51.442;7.540;2023-07-31T05:39:10;10.77;;;2.47;;
42200;SDS011;27869;51.442;7.540;2023-07-31T05:41:37;11.27;;;2.22;;
42200;SDS011;27869;51.442;7.540;2023-07-31T05:44:05;12.18;;;2.63;;
42200;SDS011;27869;51.442;7.540;2023-07-31T05:46:32;9.52;;;2.28;;
42200;SDS011;27869;51.442;7.540;2023-07-31T05:48:59;10.27;;;2.22;;
42200;SDS011;27869;51.442;7.540;2023-07-31T05:51:26;13.15;;;2.38;;
42200;SDS011;27869;51.442;7.540;2023-07-31T05:53:53;11.50;;;2.47;;
42200;SDS011;27869;51.442;7.540;2023-07-31T05:56:20;11.93;;;2.90;;
42200;SDS011;27869;51.442;7.540;2023-07-31T05:58:47;9.93;;;2.30;;
42200;SDS011;27869;51.442;7.540;2023-07-31T06:01:16;9.70;;;2.25;;
42200;SDS011;27869;51.442;7.540;2023-07-31T06:03:43;9.95;;;2.58;;
42200;SDS011;27869;51.442;7.540;2023-07-31T06:06:10;9.63;;;2.42;;
42200;SDS011;27869;51.442;7.540;2023-07-31T06:08:38;12.85;;;4.07;;
42200;SDS011;27869;51.442;7.540;2023-07-31T06:11:06;10.20;;;2.40;;
42200;SDS011;27869;51.442;7.540;2023-07-31T06:13:34;10.45;;;2.60;;
42200;SDS011;27869;51.442;7.540;2023-07-31T06:16:01;13.57;;;2.90;;
42200;SDS011;27869;51.442;7.540;2023-07-31T06:20:58;9.93;;;2.50;;
42200;SDS011;27869;51.442;7.540;2023-07-31T06:23:25;12.23;;;2.72;;
42200;SDS011;27869;51.442;7.540;2023-07-31T06:25:52;11.40;;;2.67;;
42200;SDS011;27869;51.442;7.540;2023-07-31T06:28:18;10.18;;;2.22;;
42200;SDS011;27869;51.442;7.540;2023-07-31T06:30:45;11.77;;;2.50;;
42200;SDS011;27869;51.442;7.540;2023-07-31T06:33:12;9.32;;;2.40;;
42200;SDS011;27869;51.442;7.540;2023-07-31T06:35:40;9.18;;;2.60;;
42200;SDS011;27869;51.442;7.540;2023-07-31T06:38:07;12.40;;;2.55;;
42200;SDS011;27869;51.442;7.540;2023-07-31T06:40:34;10.15;;;2.63;;
42200;SDS011;27869;51.442;7.540;2023-07-31T06:43:01;10.75;;;3.08;;
42200;SDS011;27869;51.442;7.540;2023-07-31T06:45:32;8.90;;;2.45;;
42200;SDS011;27869;51.442;7.540;2023-07-31T06:48:00;10.10;;;2.42;;
42200;SDS011;27869;51.442;7.540;2023-07-31T06:50:27;12.02;;;2.60;;
42200;SDS011;27869;51.442;7.540;2023-07-31T06:52:55;11.73;;;2.47;;
42200;SDS011;27869;51.442;7.540;2023-07-31T06:55:22;10.55;;;2.40;;
42200;SDS011;27869;51.442;7.540;2023-07-31T06:57:50;10.30;;;2.47;;
42200;SDS011;27869;51.442;7.540;2023-07-31T07:00:18;9.90;;;2.53;;
42200;SDS011;27869;51.442;7.540;2023-07-31T07:02:46;14.10;;;2.47;;
42200;SDS011;27869;51.442;7.540;2023-07-31T07:05:13;9.75;;;2.50;;
42200;SDS011;27869;51.442;7.540;2023-07-31T07:07:41;10.10;;;2.15;;
42200;SDS011;27869;51.442;7.540;2023-07-31T07:10:09;10.02;;;2.42;;
42200;SDS011;27869;51.442;7.540;2023-07-31T07:12:36;10.13;;;2.00;;
42200;SDS011;27869;51.442;7.540;2023-07-31T07:15:03;12.93;;;2.33;;
42200;SDS011;27869;51.442;7.540;2023-07-31T07:17:31;8.98;;;2.17;;
42200;SDS011;27869;51.442;7.540;2023-07-31T07:19:58;11.02;;;2.30;;
42200;SDS011;27869;51.442;7.540;2023-07-31T07:22:25;10.70;;;2.25;;
42200;SDS011;27869;51.442;7.540;2023-07-31T07:24:53;9.50;;;2.10;;
42200;SDS011;27869;51.442;7.540;2023-07-31T07:27:21;9.05;;;1.90;;
42200;SDS011;27869;51.442;7.540;2023-07-31T07:29:49;8.68;;;2.05;;
42200;SDS011;27869;51.442;7.540;2023-07-31T07:32:17;8.05;;;2.10;;
42200;SDS011;27869;51.442;7.540;2023-07-31T07:34:44;9.32;;;2.40;;
42200;SDS011;27869;51.442;7.540;2023-07-31T07:37:11;10.30;;;2.30;;
42200;SDS011;27869;51.442;7.540;2023-07-31T07:39:38;8.10;;;2.08;;
42200;SDS011;27869;51.442;7.540;2023-07-31T07:42:05;8.55;;;2.03;;
42200;SDS011;27869;51.442;7.540;2023-07-31T07:44:33;9.63;;;2.05;;
42200;SDS011;27869;51.442;7.540;2023-07-31T07:47:00;11.00;;;2.38;;
42200;SDS011;27869;51.442;7.540;2023-07-31T07:49:27;7.60;;;2.20;;
42200;SDS011;27869;51.442;7.540;2023-07-31T07:51:54;10.30;;;2.28;;
42200;SDS011;27869;51.442;7.540;2023-07-31T07:54:20;11.15;;;2.40;;
42200;SDS011;27869;51.442;7.540;2023-07-31T07:56:48;7.28;;;2.00;;
42200;SDS011;27869;51.442;7.540;2023-07-31T07:59:15;10.82;;;2.60;;
42200;SDS011;27869;51.442;7.540;2023-07-31T08:01:43;8.30;;;2.10;;
42200;SDS011;27869;51.442;7.540;2023-07-31T08:04:10;8.35;;;2.10;;
42200;SDS011;27869;51.442;7.540;2023-07-31T08:06:37;8.50;;;2.20;;
42200;SDS011;27869;51.442;7.540;2023-07-31T08:09:05;9.90;;;2.20;;
42200;SDS011;27869;51.442;7.540;2023-07-31T08:11:33;10.82;;;2.42;;
42200;SDS011;27869;51.442;7.540;2023-07-31T08:14:00;10.80;;;2.30;;
42200;SDS011;27869;51.442;7.540;2023-07-31T08:16:27;9.93;;;1.98;;
42200;SDS011;27869;51.442;7.540;2023-07-31T08:18:55;8.52;;;2.22;;
42200;SDS011;27869;51.442;7.540;2023-07-31T08:21:22;11.75;;;2.38;;
42200;SDS011;27869;51.442;7.540;2023-07-31T08:23:49;9.57;;;2.20;;
42200;SDS011;27869;51.442;7.540;2023-07-31T08:26:16;10.23;;;2.05;;
42200;SDS011;27869;51.442;7.540;2023-07-31T08:28:43;8.20;;;2.20;;
42200;SDS011;27869;51.442;7.540;2023-07-31T08:31:10;8.00;;;1.90;;
42200;SDS011;27869;51.442;7.540;2023-07-31T08:33:37;10.70;;;2.42;;
42200;SDS011;27869;51.442;7.540;2023-07-31T08:36:06;8.50;;;2.10;;
42200;SDS011;27869;51.442;7.540;2023-07-31T08:38:33;10.35;;;2.03;;
42200;SDS011;27869;51.442;7.540;2023-07-31T08:41:00;9.77;;;2.03;;
42200;SDS011;27869;51.442;7.540;2023-07-31T08:43:28;10.10;;;2.13;;
42200;SDS011;27869;51.442;7.540;2023-07-31T08:45:56;9.80;;;2.35;;
42200;SDS011;27869;51.442;7.540;2023-07-31T08:48:23;7.43;;;1.70;;
42200;SDS011;27869;51.442;7.540;2023-07-31T08:50:51;8.05;;;1.92;;
42200;SDS011;27869;51.442;7.540;2023-07-31T08:53:20;6.80;;;1.67;;
42200;SDS011;27869;51.442;7.540;2023-07-31T08:55:47;7.47;;;1.70;;
42200;SDS011;27869;51.442;7.540;2023-07-31T08:58:15;7.38;;;1.90;;
42200;SDS011;27869;51.442;7.540;2023-07-31T09:00:44;7.78;;;1.73;;
42200;SDS011;27869;51.442;7.540;2023-07-31T09:03:13;8.10;;;1.92;;
42200;SDS011;27869;51.442;7.540;2023-07-31T09:05:42;6.60;;;1.58;;
42200;SDS011;27869;51.442;7.540;2023-07-31T09:08:10;6.22;;;1.42;;
42200;SDS011;27869;51.442;7.540;2023-07-31T09:10:41;4.80;;;1.55;;
42200;SDS011;27869;51.442;7.540;2023-07-31T09:13:08;9.18;;;1.90;;
42200;SDS011;27869;51.442;7.540;2023-07-31T09:15:36;7.72;;;1.80;;
42200;SDS011;27869;51.442;7.540;2023-07-31T09:18:04;5.82;;;1.48;;
42200;SDS011;27869;51.442;7.540;2023-07-31T09:20:32;6.05;;;1.65;;
42200;SDS011;27869;51.442;7.540;2023-07-31T09:23:05;5.55;;;1.40;;
42200;SDS011;27869;51.442;7.540;2023-07-31T09:25:34;7.78;;;1.65;;
42200;SDS011;27869;51.442;7.540;2023-07-31T09:28:03;4.72;;;1.42;;
42200;SDS011;27869;51.442;7.540;2023-07-31T09:30:32;3.08;;;1.20;;
42200;SDS011;27869;51.442;7.540;2023-07-31T09:33:11;5.40;;;1.50;;
42200;SDS011;27869;51.442;7.540;2023-07-31T09:35:38;4.90;;;1.58;;
42200;SDS011;27869;51.442;7.540;2023-07-31T09:38:07;5.90;;;1.70;;
42200;SDS011;27869;51.442;7.540;2023-07-31T09:40:35;6.45;;;1.70;;
42200;SDS011;27869;51.442;7.540;2023-07-31T09:43:05;10.00;;;1.70;;
42200;SDS011;27869;51.442;7.540;2023-07-31T09:45:36;8.65;;;2.05;;
42200;SDS011;27869;51.442;7.540;2023-07-31T09:48:06;7.40;;;1.55;;
42200;SDS011;27869;51.442;7.540;2023-07-31T09:50:36;5.80;;;1.50;;
42200;SDS011;27869;51.442;7.540;2023-07-31T09:53:03;6.47;;;1.70;;
42200;SDS011;27869;51.442;7.540;2023-07-31T09:55:30;7.55;;;1.80;;
42200;SDS011;27869;51.442;7.540;2023-07-31T09:57:57;8.45;;;1.70;;
42200;SDS011;27869;51.442;7.540;2023-07-31T10:00:26;6.65;;;1.63;;
42200;SDS011;27869;51.442;7.540;2023-07-31T10:02:53;6.15;;;1.70;;
42200;SDS011;27869;51.442;7.540;2023-07-31T10:05:22;6.93;;;1.63;;
42200;SDS011;27869;51.442;7.540;2023-07-31T10:07:51;6.93;;;1.52;;
42200;SDS011;27869;51.442;7.540;2023-07-31T10:10:20;8.00;;;1.77;;
42200;SDS011;27869;51.442;7.540;2023-07-31T10:12:47;5.97;;;1.58;;
42200;SDS011;27869;51.442;7.540;2023-07-31T10:15:15;6.28;;;1.50;;
42200;SDS011;27869;51.442;7.540;2023-07-31T10:17:43;6.25;;;1.55;;
42200;SDS011;27869;51.442;7.540;2023-07-31T10:20:12;5.10;;;1.48;;
42200;SDS011;27869;51.442;7.540;2023-07-31T10:25:08;5.15;;;1.23;;
42200;SDS011;27869;51.442;7.540;2023-07-31T10:27:36;5.43;;;1.35;;
42200;SDS011;27869;51.442;7.540;2023-07-31T10:30:05;4.18;;;1.20;;
42200;SDS011;27869;51.442;7.540;2023-07-31T10:32:36;5.93;;;1.27;;
42200;SDS011;27869;51.442;7.540;2023-07-31T10:35:08;7.00;;;1.40;;
42200;SDS011;27869;51.442;7.540;2023-07-31T10:37:36;5.78;;;1.33;;
42200;SDS011;27869;51.442;7.540;2023-07-31T10:40:04;6.55;;;1.48;;
42200;SDS011;27869;51.442;7.540;2023-07-31T10:42:33;3.78;;;1.10;;
42200;SDS011;27869;51.442;7.540;2023-07-31T10:45:02;4.22;;;1.15;;
42200;SDS011;27869;51.442;7.540;2023-07-31T10:47:36;4.60;;;1.05;;
42200;SDS011;27869;51.442;7.540;2023-07-31T10:50:13;3.50;;;1.30;;
42200;SDS011;27869;51.442;7.540;2023-07-31T10:52:44;2.95;;;1.10;;
42200;SDS011;27869;51.442;7.540;2023-07-31T10:55:14;4.20;;;1.02;;
42200;SDS011;27869;51.442;7.540;2023-07-31T10:57:57;3.13;;;1.10;;
42200;SDS011;27869;51.442;7.540;2023-07-31T11:00:30;3.10;;;0.93;;
42200;SDS011;27869;51.442;7.540;2023-07-31T11:02:58;3.17;;;1.13;;
42200;SDS011;27869;51.442;7.540;2023-07-31T11:05:41;4.05;;;0.98;;
42200;SDS011;27869;51.442;7.540;2023-07-31T11:08:20;4.97;;;1.20;;
42200;SDS011;27869;51.442;7.540;2023-07-31T11:10:49;3.75;;;1.10;;
42200;SDS011;27869;51.442;7.540;2023-07-31T11:13:19;3.40;;;1.10;;
42200;SDS011;27869;51.442;7.540;2023-07-31T11:15:45;4.38;;;1.27;;
42200;SDS011;27869;51.442;7.540;2023-07-31T11:18:12;5.00;;;1.20;;
42200;SDS011;27869;51.442;7.540;2023-07-31T11:20:41;3.85;;;0.90;;
42200;SDS011;27869;51.442;7.540;2023-07-31T11:23:08;3.35;;;0.93;;
42200;SDS011;27869;51.442;7.540;2023-07-31T11:25:36;4.28;;;0.98;;
42200;SDS011;27869;51.442;7.540;2023-07-31T11:28:05;4.00;;;1.15;;
42200;SDS011;27869;51.442;7.540;2023-07-31T11:30:33;4.75;;;1.00;;
42200;SDS011;27869;51.442;7.540;2023-07-31T11:33:01;4.35;;;1.20;;
42200;SDS011;27869;51.442;7.540;2023-07-31T11:35:29;5.97;;;1.30;;
42200;SDS011;27869;51.442;7.540;2023-07-31T11:37:58;3.63;;;1.10;;
42200;SDS011;27869;51.442;7.540;2023-07-31T11:40:26;4.75;;;1.02;;
42200;SDS011;27869;51.442;7.540;2023-07-31T11:42:55;5.40;;;1.33;;
42200;SDS011;27869;51.442;7.540;2023-07-31T11:45:24;4.90;;;1.27;;
42200;SDS011;27869;51.442;7.540;2023-07-31T11:47:53;7.80;;;1.55;;
42200;SDS011;27869;51.442;7.540;2023-07-31T11:50:20;4.15;;;1.25;;
42200;SDS011;27869;51.442;7.540;2023-07-31T11:52:50;4.95;;;1.40;;
42200;SDS011;27869;51.442;7.540;2023-07-31T11:55:22;5.68;;;1.48;;
42200;SDS011;27869;51.442;7.540;2023-07-31T11:57:50;5.68;;;1.40;;
42200;SDS011;27869;51.442;7.540;2023-07-31T12:00:17;4.53;;;1.38;;
42200;SDS011;27869;51.442;7.540;2023-07-31T12:02:44;5.35;;;1.30;;
42200;SDS011;27869;51.442;7.540;2023-07-31T12:05:11;7.03;;;1.75;;
42200;SDS011;27869;51.442;7.540;2023-07-31T12:07:45;5.47;;;1.70;;
42200;SDS011;27869;51.442;7.540;2023-07-31T12:10:23;7.07;;;1.50;;
42200;SDS011;27869;51.442;7.540;2023-07-31T12:12:58;5.05;;;1.35;;
42200;SDS011;27869;51.442;7.540;2023-07-31T12:15:33;7.10;;;1.60;;
42200;SDS011;27869;51.442;7.540;2023-07-31T12:18:01;6.40;;;1.60;;
42200;SDS011;27869;51.442;7.540;2023-07-31T12:20:30;4.47;;;1.50;;
42200;SDS011;27869;51.442;7.540;2023-07-31T12:22:58;4.80;;;1.52;;
42200;SDS011;27869;51.442;7.540;2023-07-31T12:25:30;5.45;;;1.40;;
42200;SDS011;27869;51.442;7.540;2023-07-31T12:28:03;8.13;;;1.60;;
42200;SDS011;27869;51.442;7.540;2023-07-31T12:30:32;6.63;;;1.73;;
42200;SDS011;27869;51.442;7.540;2023-07-31T12:33:02;8.05;;;1.80;;
42200;SDS011;27869;51.442;7.540;2023-07-31T12:35:34;6.70;;;1.58;;
42200;SDS011;27869;51.442;7.540;2023-07-31T12:38:02;5.60;;;1.50;;
42200;SDS011;27869;51.442;7.540;2023-07-31T12:40:31;5.65;;;1.40;;
42200;SDS011;27869;51.442;7.540;2023-07-31T12:43:00;6.32;;;1.50;;
42200;SDS011;27869;51.442;7.540;2023-07-31T12:45:28;7.13;;;1.55;;
42200;SDS011;27869;51.442;7.540;2023-07-31T12:47:55;5.60;;;1.52;;
42200;SDS011;27869;51.442;7.540;2023-07-31T12:50:22;4.97;;;1.30;;
42200;SDS011;27869;51.442;7.540;2023-07-31T12:52:50;6.53;;;1.65;;
42200;SDS011;27869;51.442;7.540;2023-07-31T12:55:17;6.40;;;1.23;;
42200;SDS011;27869;51.442;7.540;2023-07-31T12:57:45;5.10;;;1.42;;
42200;SDS011;27869;51.442;7.540;2023-07-31T13:00:13;5.22;;;1.40;;
42200;SDS011;27869;51.442;7.540;2023-07-31T13:02:40;5.70;;;1.30;;
42200;SDS011;27869;51.442;7.540;2023-07-31T13:05:07;6.35;;;1.20;;
42200;SDS011;27869;51.442;7.540;2023-07-31T13:07:34;4.00;;;1.20;;
42200;SDS011;27869;51.442;7.540;2023-07-31T13:10:01;5.10;;;1.20;;
42200;SDS011;27869;51.442;7.540;2023-07-31T13:12:28;5.05;;;1.35;;
42200;SDS011;27869;51.442;7.540;2023-07-31T13:14:56;4.50;;;1.23;;
42200;SDS011;27869;51.442;7.540;2023-07-31T13:17:23;6.10;;;1.35;;
42200;SDS011;27869;51.442;7.540;2023-07-31T13:19:50;4.05;;;1.10;;
42200;SDS011;27869;51.442;7.540;2023-07-31T13:22:17;3.78;;;1.10;;
42200;SDS011;27869;51.442;7.540;2023-07-31T13:24:43;4.47;;;1.08;;
42200;SDS011;27869;51.442;7.540;2023-07-31T13:27:10;5.25;;;1.20;;
42200;SDS011;27869;51.442;7.540;2023-07-31T13:29:37;3.60;;;1.10;;
42200;SDS011;27869;51.442;7.540;2023-07-31T13:32:05;5.95;;;1.15;;
42200;SDS011;27869;51.442;7.540;2023-07-31T13:34:32;5.10;;;1.25;;
42200;SDS011;27869;51.442;7.540;2023-07-31T13:36:59;3.83;;;1.20;;
42200;SDS011;27869;51.442;7.540;2023-07-31T13:39:26;4.10;;;1.08;;
42200;SDS011;27869;51.442;7.540;2023-07-31T13:41:53;4.25;;;1.10;;
42200;SDS011;27869;51.442;7.540;2023-07-31T13:44:20;4.70;;;1.00;;
42200;SDS011;27869;51.442;7.540;2023-07-31T13:46:47;2.22;;;1.00;;
42200;SDS011;27869;51.442;7.540;2023-07-31T13:49:15;4.13;;;1.05;;
42200;SDS011;27869;51.442;7.540;2023-07-31T13:51:42;3.85;;;0.90;;
42200;SDS011;27869;51.442;7.540;2023-07-31T13:54:09;4.15;;;1.10;;
42200;SDS011;27869;51.442;7.540;2023-07-31T13:56:37;3.85;;;0.93;;
42200;SDS011;27869;51.442;7.540;2023-07-31T13:59:03;4.18;;;1.20;;
42200;SDS011;27869;51.442;7.540;2023-07-31T14:01:30;3.30;;;0.80;;
42200;SDS011;27869;51.442;7.540;2023-07-31T14:03:57;4.15;;;1.17;;
42200;SDS011;27869;51.442;7.540;2023-07-31T14:06:25;4.38;;;1.20;;
42200;SDS011;27869;51.442;7.540;2023-07-31T14:08:52;4.63;;;1.15;;
42200;SDS011;27869;51.442;7.540;2023-07-31T14:11:20;2.97;;;1.00;;
42200;SDS011;27869;51.442;7.540;2023-07-31T14:13:47;5.22;;;1.17;;
42200;SDS011;27869;51.442;7.540;2023-07-31T14:16:14;5.20;;;1.20;;
42200;SDS011;27869;51.442;7.540;2023-07-31T14:18:41;5.30;;;1.30;;
42200;SDS011;27869;51.442;7.540;2023-07-31T14:21:08;5.28;;;1.63;;
42200;SDS011;27869;51.442;7.540;2023-07-31T14:23:36;4.78;;;1.40;;
42200;SDS011;27869;51.442;7.540;2023-07-31T14:26:03;5.07;;;1.60;;
42200;SDS011;27869;51.442;7.540;2023-07-31T14:28:30;4.75;;;1.40;;
42200;SDS011;27869;51.442;7.540;2023-07-31T14:30:57;8.18;;;1.80;;
42200;SDS011;27869;51.442;7.540;2023-07-31T14:33:24;7.88;;;1.60;;
42200;SDS011;27869;51.442;7.540;2023-07-31T14:35:51;4.63;;;1.52;;
42200;SDS011;27869;51.442;7.540;2023-07-31T14:38:19;6.75;;;1.52;;
42200;SDS011;27869;51.442;7.540;2023-07-31T14:40:47;6.78;;;1.80;;
42200;SDS011;27869;51.442;7.540;2023-07-31T14:43:14;6.75;;;1.67;;
42200;SDS011;27869;51.442;7.540;2023-07-31T14:45:41;6.55;;;1.70;;
42200;SDS011;27869;51.442;7.540;2023-07-31T14:48:08;8.15;;;1.70;;
42200;SDS011;27869;51.442;7.540;2023-07-31T14:50:35;7.45;;;1.80;;
42200;SDS011;27869;51.442;7.540;2023-07-31T14:53:02;5.95;;;1.67;;
42200;SDS011;27869;51.442;7.540;2023-07-31T14:55:28;5.72;;;1.77;;
42200;SDS011;27869;51.442;7.540;2023-07-31T14:57:57;5.35;;;1.48;;